ADDS METAR Data INFO
IDs: Format: Raw Decoded Include TAF

Data at: 0348 UTC 20 Feb 2018

KAPC 200254Z 12004KT 10SM SCT080 04/M02 A3006 RMK AO2 SLP169 T00391022 53014
KAPC 200154Z 16004KT 10SM SCT035 06/M02 A3004 RMK AO2 SLP162 T00561022
KAPC 200054Z 07005KT 10SM FEW060 FEW075 SCT100 09/M03 A3002 RMK AO2 SLP157 T00891028
KAPC 192354Z 30015KT 10SM BKN035 09/M01 A3001 RMK AO2 SLP155 T00891011 10117 20067 55003
KAPC 192254Z 22004KT 10SM BKN040 11/M03 A3000 RMK AO2 SLP151 T01061033
KAPC 192154Z 24007KT 10SM SCT045 11/M04 A3001 RMK AO2 SLP153 T01111039
KAPC 192054Z 00000KT 10SM SCT040 11/M04 A3002 RMK AO2 SLP157 T01061039 58006
KAPC 191954Z 29008KT 10SM CLR 10/M02 A3004 RMK AO2 SLP163 T01001022
KAPC 191854Z 26006KT 10SM CLR 09/M02 A3004 RMK AO2 SLP164 T00891022
KAPC 191754Z 00000KT 10SM CLR 07/M01 A3004 RMK AO2 SLP164 T00671011 10067 21011 51021
KAPC 191654Z 34004KT 10SM CLR 04/M01 A3003 RMK AO2 SLP160 T00441006
KAPC 191554Z 34004KT 10SM CLR 02/M01 A3001 RMK AO2 SLP152 T00171011
KAPC 191454Z 35004KT 10SM CLR M01/M03 A2998 RMK AO2 SLP143 T10061028 53006
KAPC 191354Z AUTO 28009KT 10SM CLR 02/M02 A2995 RMK AO2 SLP132 T00171022
KAPC 191254Z AUTO 27010KT 10SM CLR 03/M01 A2995 RMK AO2 SLP132 T00281011
KAPC 191154Z AUTO 25008KT 10SM FEW120 02/M02 A2996 RMK AO2 SLP136 T00221017 10050 20011 58001
KAPC 191054Z AUTO 00000KT 10SM CLR 02/M03 A2996 RMK AO2 SLP137 T00221028
KAPC 190954Z AUTO 26008KT 10SM CLR 03/M02 A2996 RMK AO2 SLP137 T00281017
KAPC 190854Z AUTO 30010KT 10SM CLR 04/M01 A2996 RMK AO2 SLP137 T00391011 50002
KAPC 190754Z AUTO 26010KT 10SM CLR 03/M01 A2996 RMK AO2 SLP138 T00331011 401440028
KAPC 190654Z AUTO 27012KT 10SM CLR 04/M01 A2996 RMK AO2 SLP136 T00391006
KAPC 190554Z AUTO 29010KT 10SM CLR 05/M01 A2996 RMK AO2 SLP135 T00501011 10128 20050 52001
KAPC 190454Z AUTO 28013KT 10SM CLR 06/M01 A2995 RMK AO2 SLP134 T00561011
KAPC 190354Z 31010KT 10SM CLR 07/M01 A2996 RMK AO2 SLP135 T00671011
KAPC 190254Z 32011G25KT 10SM CLR 08/M02 A2995 RMK AO2 SLP134 T00781017 53011
KAPC 190154Z 30013G21KT 10SM CLR 08/M01 A2993 RMK AO2 SLP125 T00831006
KAPC 190054Z 30014G22KT 10SM FEW055 11/01 A2992 RMK AO2 PK WND 30028/0013 SLP124 T01110006
KAPC 182354Z 29016G23KT 10SM FEW050 BKN065 BKN080 13/03 A2992 RMK AO2 PK WND 28030/2309 SLP123 T01280028 10144 20117 55012
KAPC 182254Z 27017KT 10SM SCT060 13/02 A2992 RMK AO2 PK WND 26028/2200 SLP123 T01280022
KAPC 182154Z 27021G29KT 10SM SCT045 14/04 A2993 RMK AO2 PK WND 25029/2151 SLP126 T01390044
KAPC 182054Z 27016KT 10SM SCT060 13/04 A2995 RMK AO2 SLP135 T01280039 58017
KAPC 181954Z 29014G21KT 10SM SCT047 14/03 A2998 RMK AO2 SLP145 T01390028
KAPC 181854Z COR 28017KT 10SM FEW030 13/04 A3000 RMK AO2 SLP151 T01280039
KAPC 181754Z 29021G24KT 10SM CLR 12/04 A3001 RMK AO2 SLP152 T01170039 10117 20067 50006
KAPC 181654Z 27010KT 10SM SCT028 10/08 A3001 RMK AO2 SLP154 T01000078
KAPC 181554Z 27011KT 10SM SCT028 08/07 A3000 RMK AO2 SLP150 T00830072